createdAt,value
2017-08-19T00:02:12.150Z,97975.80
2017-08-19T00:04:40.568Z,97975.13
2017-08-19T00:07:08.934Z,97971.73
2017-08-19T00:09:37.297Z,97978.83
2017-08-19T00:12:05.710Z,97982.52
2017-08-19T00:14:34.063Z,97986.84
2017-08-19T00:17:02.448Z,97994.55
2017-08-19T00:19:30.871Z,97992.03
2017-08-19T00:22:00.032Z,97990.00
2017-08-19T00:24:28.402Z,97996.45
2017-08-19T00:26:56.811Z,97998.41
2017-08-19T00:29:25.185Z,98000.09
2017-08-19T00:31:53.628Z,98001.16
2017-08-19T00:34:21.996Z,98005.62
2017-08-19T00:36:50.380Z,98009.06
2017-08-19T00:39:18.748Z,98002.20
2017-08-19T00:41:47.929Z,98000.64
2017-08-19T00:44:16.305Z,97998.86
2017-08-19T00:46:44.678Z,98000.50
2017-08-19T00:49:13.068Z,97996.89
2017-08-19T00:51:42.209Z,98003.25
2017-08-19T00:54:10.624Z,97999.19
2017-08-19T00:56:39.008Z,97999.98
2017-08-19T00:59:07.442Z,98001.17
2017-08-19T01:01:35.804Z,98002.38
2017-08-19T01:04:04.187Z,98005.29
2017-08-19T01:06:33.365Z,98008.05
2017-08-19T01:09:01.741Z,98003.94
2017-08-19T01:11:30.110Z,98006.02
2017-08-19T01:13:58.519Z,98006.57
2017-08-19T01:16:27.667Z,98004.66
2017-08-19T01:18:56.033Z,98008.95
2017-08-19T01:21:24.420Z,98009.16
2017-08-19T01:23:52.782Z,98009.03
2017-08-19T01:26:39.643Z,98011.51
2017-08-19T01:29:08.029Z,98009.00
2017-08-19T01:31:36.938Z,98010.73
2017-08-19T01:34:05.339Z,98006.55
2017-08-19T01:36:34.473Z,98009.43
2017-08-19T01:39:02.851Z,98009.38
2017-08-19T01:41:31.243Z,98006.42
2017-08-19T01:43:59.628Z,98011.98
2017-08-19T01:46:28.039Z,98010.41
2017-08-19T01:48:56.428Z,98003.05
2017-08-19T01:51:24.797Z,98000.25
2017-08-19T01:53:53.194Z,98005.11
2017-08-19T01:56:21.561Z,98002.72
2017-08-19T01:58:49.967Z,98005.20
2017-08-19T02:01:19.108Z,98002.95
2017-08-19T02:03:47.506Z,97998.82
2017-08-19T02:06:15.876Z,98001.51
2017-08-19T02:08:44.264Z,98009.84
2017-08-19T02:11:12.677Z,98011.33
2017-08-19T02:13:41.062Z,98014.66
2017-08-19T02:16:10.212Z,98009.86
2017-08-19T02:18:38.614Z,98004.48
2017-08-19T02:21:06.997Z,98007.00
2017-08-19T02:23:35.362Z,98004.58
2017-08-19T02:26:03.748Z,98003.90
2017-08-19T02:28:32.128Z,98000.16
2017-08-19T02:31:00.535Z,97992.02
2017-08-19T02:33:28.905Z,97998.58
2017-08-19T02:35:57.274Z,97999.23
2017-08-19T02:38:25.687Z,97997.71
2017-08-19T02:40:54.089Z,97999.98
2017-08-19T02:43:23.256Z,97995.83
2017-08-19T02:45:51.650Z,97999.62
2017-08-19T02:48:20.027Z,98003.53
2017-08-19T02:50:48.455Z,97999.22
2017-08-19T02:53:16.836Z,98001.23
2017-08-19T02:55:45.196Z,98005.29
2017-08-19T02:58:14.361Z,98012.05
2017-08-19T03:00:42.725Z,98009.01
2017-08-19T03:03:11.113Z,98010.73
2017-08-19T03:05:39.480Z,98012.16
2017-08-19T03:08:07.886Z,98012.16
2017-08-19T03:10:36.260Z,98016.50
2017-08-19T03:13:04.652Z,98014.83
2017-08-19T03:15:33.042Z,98027.50
2017-08-19T03:18:01.415Z,98028.39
2017-08-19T03:20:29.805Z,98026.38
2017-08-19T03:22:58.176Z,98027.95
2017-08-19T03:25:26.553Z,98032.63
2017-08-19T03:27:54.964Z,98038.32
2017-08-19T03:30:23.349Z,98033.66
2017-08-19T03:32:52.495Z,98034.02
2017-08-19T03:35:20.903Z,98032.27
2017-08-19T03:37:49.290Z,98039.97
2017-08-19T03:40:17.690Z,98042.96
2017-08-19T03:42:46.871Z,98046.52
2017-08-19T03:45:15.243Z,98053.08
2017-08-19T03:47:43.645Z,98049.43
2017-08-19T03:50:12.794Z,98054.44
2017-08-19T03:52:41.218Z,98055.71
2017-08-19T03:55:10.372Z,98057.89
2017-08-19T03:57:38.743Z,98056.55
2017-08-19T04:00:07.148Z,98061.88
2017-08-19T04:02:35.578Z,98064.12
2017-08-19T04:05:03.985Z,98064.24
2017-08-19T04:07:32.350Z,98073.30
2017-08-19T04:10:00.742Z,98083.26
2017-08-19T04:12:29.121Z,98076.85
2017-08-19T04:14:57.489Z,98083.21
2017-08-19T04:17:25.887Z,98078.07
2017-08-19T04:19:54.258Z,98080.98
2017-08-19T04:22:22.668Z,98075.52
2017-08-19T04:24:51.037Z,98080.69
2017-08-19T04:27:19.404Z,98075.67
2017-08-19T04:29:47.814Z,98073.94
2017-08-19T04:32:16.199Z,98067.08
2017-08-19T04:34:44.597Z,98071.82
2017-08-19T04:37:12.987Z,98071.88
2017-08-19T04:39:41.361Z,98072.36
2017-08-19T04:42:09.753Z,98078.45
2017-08-19T04:44:38.143Z,98075.89
2017-08-19T04:47:06.533Z,98078.92
2017-08-19T04:49:35.678Z,98076.45
2017-08-19T04:52:04.077Z,98079.05
2017-08-19T04:54:32.441Z,98083.00
2017-08-19T04:57:00.840Z,98081.20
2017-08-19T04:59:29.219Z,98075.59
2017-08-19T05:01:57.606Z,98079.75
2017-08-19T05:04:25.997Z,98079.66
2017-08-19T05:06:54.369Z,98079.09
2017-08-19T05:09:22.756Z,98080.22
2017-08-19T05:11:51.157Z,98082.28
2017-08-19T05:14:20.321Z,98080.80
2017-08-19T05:16:48.703Z,98084.05
2017-08-19T05:19:17.071Z,98082.16
2017-08-19T05:21:45.475Z,98082.39
2017-08-19T05:24:13.866Z,98081.30
2017-08-19T05:26:42.276Z,98078.56
2017-08-19T05:29:10.649Z,98073.63
2017-08-19T05:31:39.825Z,98070.67
2017-08-19T05:34:08.193Z,98069.83
2017-08-19T05:36:36.596Z,98073.83
2017-08-19T05:39:05.728Z,98070.61
2017-08-19T05:41:34.131Z,98069.64
2017-08-19T05:44:02.527Z,98071.41
2017-08-19T05:46:30.917Z,98072.87
2017-08-19T05:48:59.281Z,98072.08
2017-08-19T05:51:27.701Z,98081.75
2017-08-19T05:53:56.869Z,98079.80
2017-08-19T05:56:25.246Z,98081.20
2017-08-19T05:58:53.653Z,98081.70
2017-08-19T06:01:22.019Z,98085.52
2017-08-19T06:03:50.432Z,98089.09
2017-08-19T06:06:18.800Z,98091.62
2017-08-19T06:08:47.183Z,98102.06
2017-08-19T06:11:15.612Z,98093.39
2017-08-19T06:13:43.986Z,98096.61
2017-08-19T06:16:12.384Z,98103.23
2017-08-19T06:18:40.795Z,98103.84
2017-08-19T06:21:09.266Z,98104.84
2017-08-19T06:23:37.839Z,98103.48
2017-08-19T06:26:06.209Z,98102.64
2017-08-19T06:28:34.614Z,98113.34
2017-08-19T06:31:03.020Z,98114.70
2017-08-19T06:33:31.398Z,98125.04
2017-08-19T06:35:59.812Z,98123.00
2017-08-19T06:38:28.194Z,98127.73
2017-08-19T06:40:56.572Z,98135.09
2017-08-19T06:43:24.968Z,98135.99
2017-08-19T06:45:53.349Z,98129.16
2017-08-19T06:48:21.761Z,98130.86
2017-08-19T06:50:50.148Z,98135.55
2017-08-19T06:53:18.549Z,98130.85
2017-08-19T06:55:47.047Z,98134.50
2017-08-19T06:58:16.178Z,98134.45
2017-08-19T07:00:44.737Z,98142.08
2017-08-19T07:03:13.181Z,98131.66
2017-08-19T07:05:41.579Z,98136.84
2017-08-19T07:08:10.277Z,98137.64
2017-08-19T07:10:39.430Z,98138.12
2017-08-19T07:13:07.838Z,98134.39
2017-08-19T07:15:36.224Z,98127.04
2017-08-19T07:18:04.636Z,98130.66
2017-08-19T07:20:33.030Z,98132.85
2017-08-19T07:23:01.439Z,98132.70
2017-08-19T07:25:29.825Z,98129.78
2017-08-19T07:27:58.221Z,98130.36
2017-08-19T07:30:26.604Z,98133.02
2017-08-19T07:32:55.070Z,98124.75
2017-08-19T07:35:23.455Z,98131.12
2017-08-19T07:37:51.868Z,98136.42
2017-08-19T07:40:21.023Z,98134.31
2017-08-19T07:42:49.403Z,98135.74
2017-08-19T07:45:17.827Z,98135.32
2017-08-19T07:47:46.202Z,98131.88
2017-08-19T07:50:14.598Z,98132.53
2017-08-19T07:52:43.738Z,98145.02
2017-08-19T07:55:12.132Z,98132.86
2017-08-19T07:57:40.497Z,98139.84
2017-08-19T08:00:08.889Z,98138.41
2017-08-19T08:02:37.319Z,98143.23
2017-08-19T08:05:05.738Z,98143.37
2017-08-19T08:07:34.127Z,98136.92
2017-08-19T08:10:02.596Z,98144.72
2017-08-19T08:12:30.991Z,98138.31
2017-08-19T08:14:59.367Z,98140.75
2017-08-19T08:17:27.777Z,98148.45
2017-08-19T08:19:56.159Z,98148.67
2017-08-19T08:22:24.567Z,98156.23
2017-08-19T08:24:53.715Z,98152.25
2017-08-19T08:27:22.081Z,98161.95
2017-08-19T08:29:50.487Z,98152.00
2017-08-19T08:32:18.878Z,98158.41
2017-08-19T08:34:47.316Z,98156.81
2017-08-19T08:37:15.715Z,98163.75
2017-08-19T08:39:44.107Z,98161.03
2017-08-19T08:42:12.520Z,98156.55
2017-08-19T08:44:40.893Z,98161.98
2017-08-19T08:47:09.307Z,98162.33
2017-08-19T08:49:37.693Z,98160.70
2017-08-19T08:52:06.859Z,98155.38
2017-08-19T08:54:35.245Z,98163.09
2017-08-19T08:57:03.645Z,98161.48
2017-08-19T08:59:32.839Z,98169.64
2017-08-19T09:02:02.070Z,98161.03
2017-08-19T09:04:30.452Z,98160.67
2017-08-19T09:06:58.855Z,98168.94
2017-08-19T09:09:27.245Z,98170.48
2017-08-19T09:11:55.628Z,98165.59
2017-08-19T09:14:24.039Z,98167.42
2017-08-19T09:16:52.413Z,98155.50
2017-08-19T09:19:20.817Z,98159.92
2017-08-19T09:21:49.195Z,98161.59
2017-08-19T09:24:18.367Z,98154.00
2017-08-19T09:26:46.740Z,98154.53
2017-08-19T09:29:15.131Z,98147.08
2017-08-19T09:31:43.522Z,98153.53
2017-08-19T09:34:11.906Z,98161.75
2017-08-19T09:36:40.308Z,98159.10
2017-08-19T09:39:08.719Z,98168.95
2017-08-19T09:41:37.087Z,98163.41
2017-08-19T09:44:05.494Z,98167.57
2017-08-19T09:46:33.880Z,98172.22
2017-08-19T09:49:02.276Z,98169.34
2017-08-19T09:51:30.678Z,98167.37
2017-08-19T09:53:59.045Z,98159.80
2017-08-19T09:56:27.460Z,98167.88
2017-08-19T09:58:55.842Z,98164.23
2017-08-19T10:01:24.216Z,98163.80
2017-08-19T10:03:52.617Z,98174.27
2017-08-19T10:06:20.985Z,98174.89
2017-08-19T10:11:56.881Z,98174.86
2017-08-19T10:14:25.264Z,98177.05
2017-08-19T10:16:53.670Z,98174.41
2017-08-19T10:19:22.068Z,98181.20
2017-08-19T10:21:50.480Z,98178.20
2017-08-19T10:24:19.648Z,98172.62
2017-08-19T10:26:48.033Z,98173.98
2017-08-19T10:29:16.415Z,98174.94
2017-08-19T10:31:44.826Z,98173.21
2017-08-19T10:34:13.991Z,98167.39
2017-08-19T10:36:42.409Z,98180.44
2017-08-19T10:39:11.581Z,98174.69
2017-08-19T10:41:40.003Z,98184.94
2017-08-19T10:44:08.373Z,98183.43
2017-08-19T10:46:37.521Z,98177.91
2017-08-19T10:49:05.916Z,98177.43
2017-08-19T10:51:34.299Z,98175.98
2017-08-19T10:54:02.692Z,98171.53
2017-08-19T10:56:31.065Z,98179.11
2017-08-19T10:58:59.482Z,98178.09
2017-08-19T11:01:28.608Z,98174.16
2017-08-19T11:03:56.983Z,98174.29
2017-08-19T11:06:25.377Z,98167.23
2017-08-19T11:08:53.751Z,98177.03
2017-08-19T11:11:22.129Z,98167.41
2017-08-19T11:13:50.535Z,98167.77
2017-08-19T11:16:18.927Z,98172.83
2017-08-19T11:18:47.306Z,98166.53
2017-08-19T11:21:15.706Z,98164.02
2017-08-19T11:23:44.086Z,98171.39
2017-08-19T11:26:12.488Z,98168.67
2017-08-19T11:28:40.861Z,98166.50
2017-08-19T11:31:10.008Z,98171.13
2017-08-19T11:33:38.424Z,98176.24
2017-08-19T11:36:06.811Z,98171.27
2017-08-19T11:38:35.282Z,98179.74
2017-08-19T11:41:03.695Z,98190.41
2017-08-19T11:43:32.062Z,98192.83
2017-08-19T11:46:00.458Z,98198.30
2017-08-19T11:48:28.885Z,98200.81
2017-08-19T11:50:57.246Z,98211.30
2017-08-19T11:53:25.645Z,98201.68
2017-08-19T11:55:54.337Z,98219.91
2017-08-19T11:58:22.737Z,98218.09
2017-08-19T12:00:51.149Z,98222.46
2017-08-19T12:03:19.519Z,98226.23
2017-08-19T12:05:47.945Z,98232.26
2017-08-19T12:08:16.344Z,98225.05
2017-08-19T12:10:44.753Z,98230.46
2017-08-19T12:13:13.166Z,98226.41
2017-08-19T12:15:41.638Z,98218.75
2017-08-19T12:18:10.049Z,98219.14
2017-08-19T12:20:38.432Z,98218.34
2017-08-19T12:23:06.847Z,98211.00
2017-08-19T12:25:35.221Z,98218.23
2017-08-19T12:28:03.623Z,98211.48
2017-08-19T12:30:32.197Z,98208.02
2017-08-19T12:33:00.579Z,98213.87
2017-08-19T12:35:28.974Z,98218.61
2017-08-19T12:37:57.387Z,98223.02
2017-08-19T12:40:26.555Z,98216.23
2017-08-19T12:42:54.926Z,98231.44
2017-08-19T12:45:23.333Z,98239.84
2017-08-19T12:47:51.719Z,98245.77
2017-08-19T12:50:20.082Z,98239.56
2017-08-19T12:52:48.488Z,98233.23
2017-08-19T12:55:16.875Z,98233.22
2017-08-19T12:57:45.273Z,98232.52
2017-08-19T13:00:13.648Z,98237.40
2017-08-19T13:02:42.033Z,98242.53
2017-08-19T13:05:10.401Z,98235.61
2017-08-19T13:07:38.804Z,98231.80
2017-08-19T13:10:07.203Z,98225.08
2017-08-19T13:12:35.609Z,98229.55
2017-08-19T13:15:03.995Z,98234.25
2017-08-19T13:17:32.387Z,98233.55
2017-08-19T13:20:00.804Z,98238.03
2017-08-19T13:22:29.178Z,98234.41
2017-08-19T13:24:57.558Z,98231.38
2017-08-19T13:27:25.966Z,98229.43
2017-08-19T13:29:55.006Z,98226.24
2017-08-19T13:32:23.390Z,98233.84
2017-08-19T13:34:52.550Z,98230.48
2017-08-19T13:37:20.917Z,98229.43
2017-08-19T13:39:49.284Z,98231.36
2017-08-19T13:42:17.678Z,98231.97
2017-08-19T13:44:46.066Z,98244.77
2017-08-19T13:47:14.469Z,98239.57
2017-08-19T13:49:42.874Z,98240.44
2017-08-19T13:52:11.255Z,98234.48
2017-08-19T13:54:40.401Z,98235.65
2017-08-19T13:57:08.816Z,98242.57
2017-08-19T13:59:37.185Z,98246.07
2017-08-19T14:02:05.562Z,98243.30
2017-08-19T14:04:33.975Z,98243.98
2017-08-19T14:07:02.374Z,98250.72
2017-08-19T14:09:31.519Z,98246.53
2017-08-19T14:11:59.927Z,98253.70
2017-08-19T14:14:28.292Z,98255.74
2017-08-19T14:16:56.685Z,98254.83
2017-08-19T14:19:25.079Z,98250.05
2017-08-19T14:21:53.460Z,98253.97
2017-08-19T14:24:21.838Z,98254.66
2017-08-19T14:26:50.237Z,98245.02
2017-08-19T14:29:19.377Z,98240.63
2017-08-19T14:31:47.741Z,98249.78
2017-08-19T14:34:16.138Z,98246.25
2017-08-19T14:36:44.499Z,98254.22
2017-08-19T14:39:12.879Z,98251.09
2017-08-19T14:41:41.273Z,98255.44
2017-08-19T14:44:09.659Z,98256.17
2017-08-19T14:46:38.022Z,98261.38
2017-08-19T14:49:06.427Z,98257.00
2017-08-19T14:51:34.789Z,98261.67
2017-08-19T14:54:03.153Z,98263.58
2017-08-19T14:56:31.551Z,98261.85
2017-08-19T14:58:59.934Z,98253.75
2017-08-19T15:01:28.315Z,98255.09
2017-08-19T15:03:56.736Z,98255.73
2017-08-19T15:06:25.131Z,98262.79
2017-08-19T15:08:53.517Z,98262.05
2017-08-19T15:11:21.913Z,98258.88
2017-08-19T15:13:51.046Z,98250.63
2017-08-19T15:16:19.429Z,98252.81
2017-08-19T15:18:47.826Z,98258.97
2017-08-19T15:21:16.947Z,98253.86
2017-08-19T15:23:45.313Z,98250.70
2017-08-19T15:26:13.703Z,98247.42
2017-08-19T15:28:42.092Z,98253.00
2017-08-19T15:31:10.472Z,98256.92
2017-08-19T15:33:38.879Z,98261.98
2017-08-19T15:36:08.035Z,98257.16
2017-08-19T15:38:36.419Z,98268.84
2017-08-19T15:41:04.829Z,98271.70
2017-08-19T15:43:33.193Z,98262.41
2017-08-19T15:46:01.569Z,98267.20
2017-08-19T15:48:29.989Z,98265.91
2017-08-19T15:50:58.353Z,98273.89
2017-08-19T15:53:26.783Z,98264.30
2017-08-19T15:55:55.195Z,98259.83
2017-08-19T15:58:23.571Z,98265.06
2017-08-19T16:00:51.959Z,98266.38
2017-08-19T16:03:20.367Z,98260.58
2017-08-19T16:05:49.494Z,98268.30
2017-08-19T16:08:17.894Z,98259.00
2017-08-19T16:10:46.283Z,98258.84
2017-08-19T16:13:14.650Z,98255.48
2017-08-19T16:15:43.066Z,98255.05
2017-08-19T16:18:11.521Z,98255.77
2017-08-19T16:20:39.900Z,98250.33
2017-08-19T16:23:08.303Z,98249.08
2017-08-19T16:25:36.703Z,98251.80
2017-08-19T16:28:05.076Z,98254.14
2017-08-19T16:30:34.265Z,98257.19
2017-08-19T16:33:02.630Z,98256.29
2017-08-19T16:35:31.013Z,98250.95
2017-08-19T16:37:59.416Z,98257.58
2017-08-19T16:40:27.792Z,98254.52
2017-08-19T16:42:56.172Z,98263.95
2017-08-19T16:45:24.569Z,98271.61
2017-08-19T16:47:52.933Z,98271.16
2017-08-19T16:50:21.325Z,98276.96
2017-08-19T16:52:49.718Z,98278.51
2017-08-19T16:55:18.085Z,98282.70
2017-08-19T16:57:46.463Z,98281.72
2017-08-19T17:00:14.887Z,98287.95
2017-08-19T17:02:43.257Z,98294.27
2017-08-19T17:05:11.630Z,98288.45
2017-08-19T17:07:40.812Z,98285.05
2017-08-19T17:10:09.190Z,98286.01
2017-08-19T17:12:37.552Z,98290.29
2017-08-19T17:15:05.949Z,98289.48
2017-08-19T17:17:34.327Z,98294.41
2017-08-19T17:20:02.713Z,98295.92
2017-08-19T17:22:31.126Z,98301.05
2017-08-19T17:25:00.283Z,98307.97
2017-08-19T17:27:28.680Z,98315.83
2017-08-19T17:29:57.105Z,98332.53
2017-08-19T17:32:25.496Z,98337.22
2017-08-19T17:34:53.879Z,98357.34
2017-08-19T17:37:22.270Z,98370.28
2017-08-19T17:39:50.654Z,98377.05
2017-08-19T17:42:19.039Z,98381.05
2017-08-19T17:44:47.447Z,98381.13
2017-08-19T17:47:15.818Z,98364.78
2017-08-19T17:49:44.180Z,98382.98
2017-08-19T17:52:12.588Z,98373.74
2017-08-19T17:54:40.964Z,98381.62
2017-08-19T17:57:09.357Z,98376.39
2017-08-19T17:59:37.754Z,98383.20
2017-08-19T18:02:06.887Z,98381.05
2017-08-19T18:04:35.262Z,98390.13
2017-08-19T18:07:03.654Z,98389.50
2017-08-19T18:09:32.051Z,98382.84
2017-08-19T18:12:00.445Z,98389.23
2017-08-19T18:14:28.820Z,98382.12
2017-08-19T18:16:57.233Z,98388.48
2017-08-19T18:19:26.365Z,98384.42
2017-08-19T18:21:54.761Z,98396.72
2017-08-19T18:24:23.140Z,98385.12
2017-08-19T18:26:51.532Z,98390.98
2017-08-19T18:29:19.945Z,98395.98
2017-08-19T18:31:48.319Z,98397.78
2017-08-19T18:34:16.686Z,98394.26
2017-08-19T18:36:45.089Z,98388.64
2017-08-19T18:39:13.475Z,98394.91
2017-08-19T18:41:42.625Z,98397.50
2017-08-19T18:44:11.018Z,98395.98
2017-08-19T18:46:39.395Z,98399.72
2017-08-19T18:49:07.762Z,98404.47
2017-08-19T18:51:36.149Z,98411.75
2017-08-19T18:54:04.531Z,98409.61
2017-08-19T18:56:32.956Z,98418.33
2017-08-19T18:59:01.350Z,98422.54
2017-08-19T19:01:30.499Z,98415.55
2017-08-19T19:03:58.948Z,98416.76
2017-08-19T19:06:27.324Z,98421.36
2017-08-19T19:08:55.693Z,98423.45
2017-08-19T19:11:24.094Z,98429.36
2017-08-19T19:13:52.476Z,98441.10
2017-08-19T19:16:20.845Z,98439.09
2017-08-19T19:18:49.256Z,98441.17
2017-08-19T19:21:17.644Z,98442.66
2017-08-19T19:23:46.009Z,98443.97
2017-08-19T19:26:14.408Z,98440.84
2017-08-19T19:28:42.786Z,98436.95
2017-08-19T19:31:11.157Z,98437.64
2017-08-19T19:33:39.580Z,98442.16
2017-08-19T19:36:07.954Z,98442.41
2017-08-19T19:38:36.314Z,98437.87
2017-08-19T19:41:04.716Z,98436.40
2017-08-19T19:43:33.089Z,98444.03
2017-08-19T19:46:01.455Z,98445.95
2017-08-19T19:48:29.871Z,98448.06
2017-08-19T19:50:58.246Z,98450.53
2017-08-19T19:53:26.635Z,98445.40
2017-08-19T19:55:55.029Z,98451.95
2017-08-19T19:58:24.159Z,98457.62
2017-08-19T20:00:52.530Z,98451.95
2017-08-19T20:03:20.931Z,98456.72
2017-08-19T20:05:49.293Z,98456.78
2017-08-19T20:08:17.662Z,98457.44
2017-08-19T20:10:46.078Z,98459.00
2017-08-19T20:13:14.446Z,98461.28
2017-08-19T20:15:42.828Z,98463.75
2017-08-19T20:18:11.247Z,98460.13
2017-08-19T20:20:39.623Z,98464.44
2017-08-19T20:23:08.012Z,98469.00
2017-08-19T20:25:36.419Z,98468.84
2017-08-19T20:28:05.570Z,98469.00
2017-08-19T20:30:33.931Z,98470.88
2017-08-19T20:33:02.338Z,98474.81
2017-08-19T20:35:30.785Z,98465.64
2017-08-19T20:37:59.157Z,98466.47
2017-08-19T20:40:27.562Z,98472.11
2017-08-19T20:42:55.933Z,98473.72
2017-08-19T20:45:24.298Z,98474.14
2017-08-19T20:47:52.705Z,98476.26
2017-08-19T20:50:21.080Z,98474.59
2017-08-19T20:52:49.448Z,98477.34
2017-08-19T20:55:17.849Z,98464.73
2017-08-19T20:57:46.230Z,98463.83
2017-08-19T21:00:14.605Z,98460.81
2017-08-19T21:02:43.003Z,98469.09
2017-08-19T21:05:11.365Z,98474.14
2017-08-19T21:07:39.747Z,98479.74
2017-08-19T21:10:08.149Z,98482.25
2017-08-19T21:12:36.536Z,98475.87
2017-08-19T21:15:04.918Z,98478.69
2017-08-19T21:17:33.320Z,98476.03
2017-08-19T21:20:01.689Z,98482.63
2017-08-19T21:22:30.051Z,98485.38
2017-08-19T21:24:58.453Z,98483.64
2017-08-19T21:27:26.818Z,98484.01
2017-08-19T21:29:55.193Z,98485.84
2017-08-19T21:32:23.592Z,98485.00
2017-08-19T21:34:51.971Z,98487.53
2017-08-19T21:37:20.367Z,98478.56
2017-08-19T21:39:48.776Z,98487.30
2017-08-19T21:42:17.190Z,98491.33
2017-08-19T21:44:45.569Z,98491.73
2017-08-19T21:47:13.969Z,98492.34
2017-08-19T21:49:42.364Z,98493.39
2017-08-19T21:52:10.771Z,98495.81
2017-08-19T21:54:39.903Z,98500.88
2017-08-19T21:57:08.330Z,98491.42
2017-08-19T21:59:37.003Z,98501.00
2017-08-19T22:02:05.567Z,98497.09
2017-08-19T22:04:34.155Z,98494.34
2017-08-19T22:07:02.596Z,98500.30
2017-08-19T22:09:31.301Z,98497.67
2017-08-19T22:11:59.683Z,98497.80
2017-08-19T22:14:28.086Z,98494.56
2017-08-19T22:16:56.473Z,98503.12
2017-08-19T22:19:24.884Z,98494.88
2017-08-19T22:21:53.287Z,98493.70
2017-08-19T22:24:21.660Z,98496.73
2017-08-19T22:26:50.040Z,98498.58
2017-08-19T22:29:18.445Z,98493.41
2017-08-19T22:31:47.572Z,98496.38
2017-08-19T22:34:15.937Z,98492.06
2017-08-19T22:36:44.329Z,98488.30
2017-08-19T22:39:12.704Z,98492.30
2017-08-19T22:41:41.072Z,98488.80
2017-08-19T22:44:09.471Z,98495.22
2017-08-19T22:46:37.837Z,98494.00
2017-08-19T22:49:06.207Z,98497.86
2017-08-19T22:51:35.361Z,98494.09
2017-08-19T22:54:03.724Z,98501.01
2017-08-19T22:56:32.103Z,98496.37
2017-08-19T22:59:00.493Z,98497.70
2017-08-19T23:01:28.865Z,98495.53
2017-08-19T23:03:57.240Z,98493.39
2017-08-19T23:06:25.643Z,98490.38
2017-08-19T23:08:54.020Z,98486.13
2017-08-19T23:11:22.413Z,98487.11
2017-08-19T23:13:50.801Z,98491.44
2017-08-19T23:16:19.177Z,98490.25
2017-08-19T23:18:47.584Z,98489.06
2017-08-19T23:21:15.973Z,98483.55
2017-08-19T23:23:45.109Z,98488.88
2017-08-19T23:26:13.474Z,98486.69
2017-08-19T23:28:41.882Z,98485.83
2017-08-19T23:31:10.253Z,98485.36
2017-08-19T23:33:38.641Z,98487.83
2017-08-19T23:36:07.021Z,98485.16
2017-08-19T23:38:35.394Z,98485.55
2017-08-19T23:41:03.790Z,98490.64
2017-08-19T23:43:32.160Z,98486.73
2017-08-19T23:46:00.530Z,98491.45
2017-08-19T23:48:28.928Z,98483.69
2017-08-19T23:50:57.313Z,98489.09
2017-08-19T23:53:25.719Z,98484.22
2017-08-19T23:55:54.087Z,98481.98
2017-08-19T23:58:22.450Z,98479.38
